Terminal Aerodrome Forecast
Issued by NWS

Home | Current Version | Previous Version | Text Only | Print | Product List | Glossary On
Versions: 1 2 3 4 5 6 7 8 9 10 11 12 13 14 15 16 17 18
000
FTUS46 KMTR 200500
TAFSNS
TAF
KSNS 200528Z 2006/2106 26005KT P6SM OVC008
     FM201700 24004KT P6SM SCT012
     FM201900 29010KT P6SM SKC
     FM210400 29006KT P6SM SKC=

USA.gov is the U.S. government's official web portal to all federal, state and local government web resources and services.